Aérodrome :
LOGIN :

S'inscrire | Disclaimer

   EN    FR    IT 

 










Légende :    VFR   VFR Marginal   IFR   IFR Intensif   IFR Très Intensif
Visi : 
Plafond : 
>= 8 km
>= 3000ft
5 à 8 km
1000 à 3000 ft
1500m à 5 km
500 à 1000 ft
800 à 1500m
200 à 500 ft
< 800m
< 200 ft
Symboles :   Orages  Brouillard  Fortes neiges  Fortes précipitations  Vent > 20 kt
SIGMETs :   Divers  Orages  Givrage  Turbulence  Onde Orograph.  Cendres Volcan.







- Altitude de l'aérodrome : 287 ft
- Voir les cartes d'approche


LFRL - Lanveoc Poulmic

DERNIER METAR :
  • 191030Z AUTO 17006KT 9999 BKN032 BKN045 08/06 Q1022 NOSIG

METARs EXPIRÉS :
  • 191000Z AUTO 16005KT 9999 FEW031 08/06 Q1022 NOSIG
  • 190930Z AUTO 15005KT 130V190 9999 FEW035 07/06 Q1022 NOSIG
  • 190900Z AUTO 16003KT CAVOK 06/05 Q1022 NOSIG
  • 190830Z AUTO 15003KT CAVOK 05/05 Q1021 NOSIG
  • 190800Z AUTO 15003KT CAVOK 04/03 Q1021 NOSIG

TAF TAF LFRL
Valide du 19 à 06h jusqu'au 20 à 06h UTC


190500Z 1906/2006 17004KT 2500 BCFG FEW025
BECMG 1908/1910 9999 NSW
Pas de NOTAMs connus pour ce terrain.
1 SIGMET publié pour la FIR Brest (LFRR) :
 
Turbulence forte
LFRR SIGMET 3 VALID 190800/191200 LFPW
LFRR BREST FIR/UIR SEV TURB FCST SE OF LINE N4800 W00015 - N4415 W00430 FL200/300 STNR NC=



MET'MAP, la Météo Aéronautique d'un coup d'oeil ! - Copyright ORBIFLY Décembre 2007 - Disclaimer

ORBIFLY MET'MAP TEAM :

Programmation & Développement : Alexandra Zaïnal
Conception & Développement : Baudouin d'Aumeries
Co-Programmation & Développement : Marc-Olivier Méhu
Soutien technique & logistique : Manuel Goepfert

Contact : metmap@orbifly.com




SOURCES & CREDITS :

   NOAA